createdAt,value
2022-08-05T00:00:48.386Z,70.60
2022-08-05T00:03:20.951Z,70.42
2022-08-05T00:06:05.259Z,70.60
2022-08-05T00:08:44.027Z,70.70
2022-08-05T00:11:20.633Z,70.84
2022-08-05T00:14:01.403Z,71.11
2022-08-05T00:16:36.474Z,71.06
2022-08-05T00:19:33.776Z,70.97
2022-08-05T00:22:14.987Z,70.92
2022-08-05T00:24:55.171Z,71.15
2022-08-05T00:27:35.825Z,71.49
2022-08-05T00:30:11.599Z,71.62
2022-08-05T00:32:43.761Z,71.67
2022-08-05T00:35:20.305Z,71.75
2022-08-05T00:37:53.818Z,71.77
2022-08-05T00:40:29.226Z,71.92
2022-08-05T00:43:03.155Z,71.73
2022-08-05T00:45:43.817Z,71.70
2022-08-05T00:48:17.187Z,71.66
2022-08-05T00:50:49.737Z,71.69
2022-08-05T00:54:01.401Z,71.55
2022-08-05T00:56:17.237Z,71.50
2022-08-05T00:58:48.873Z,71.62
2022-08-05T01:01:42.862Z,71.87
2022-08-05T01:04:13.891Z,71.96
2022-08-05T01:06:51.703Z,71.96
2022-08-05T01:09:23.292Z,72.04
2022-08-05T01:12:04.486Z,72.15
2022-08-05T01:14:49.842Z,72.24
2022-08-05T01:17:27.964Z,72.28
2022-08-05T01:20:20.544Z,72.32
2022-08-05T01:23:14.964Z,72.00
2022-08-05T01:26:03.302Z,72.30
2022-08-05T01:28:43.951Z,72.21
2022-08-05T01:31:20.060Z,72.26
2022-08-05T01:33:57.858Z,72.20
2022-08-05T01:36:42.370Z,72.19
2022-08-05T01:39:47.582Z,72.48
2022-08-05T01:42:15.397Z,72.63
2022-08-05T01:44:54.260Z,72.54
2022-08-05T01:47:38.716Z,72.54
2022-08-05T01:50:17.258Z,72.82
2022-08-05T01:52:50.332Z,72.99
2022-08-05T01:55:24.119Z,73.01
2022-08-05T01:58:29.377Z,72.98
2022-08-05T02:00:53.328Z,73.20
2022-08-05T02:03:31.880Z,72.95
2022-08-05T02:06:33.502Z,72.91
2022-08-05T02:08:59.400Z,72.81
2022-08-05T02:11:42.317Z,72.86
2022-08-05T02:14:23.288Z,72.89
2022-08-05T02:17:00.166Z,73.01
2022-08-05T02:19:35.689Z,73.11
2022-08-05T02:22:26.568Z,73.07
2022-08-05T02:25:03.645Z,73.00
2022-08-05T02:27:59.065Z,73.01
2022-08-05T02:30:36.553Z,72.93
2022-08-05T02:33:11.460Z,73.27
2022-08-05T02:35:56.305Z,73.42
2022-08-05T02:38:35.329Z,73.26
2022-08-05T02:41:17.181Z,73.28
2022-08-05T02:44:02.711Z,73.41
2022-08-05T02:46:53.755Z,73.30
2022-08-05T02:49:36.194Z,73.28
2022-08-05T02:52:09.348Z,73.50
2022-08-05T02:54:42.688Z,73.57
2022-08-05T02:58:09.191Z,73.83
2022-08-05T03:00:15.984Z,73.76
2022-08-05T03:02:51.177Z,73.75
2022-08-05T03:06:55.889Z,73.77
2022-08-05T03:08:14.727Z,74.05
2022-08-05T03:11:53.047Z,74.21
2022-08-05T03:13:51.477Z,74.03
2022-08-05T03:16:33.406Z,74.09
2022-08-05T03:19:17.012Z,74.21
2022-08-05T03:21:57.914Z,73.93
2022-08-05T03:24:30.853Z,73.94
2022-08-05T03:27:02.802Z,74.03
2022-08-05T03:29:44.691Z,74.02
2022-08-05T03:32:30.921Z,74.06
2022-08-05T03:35:04.580Z,74.09
2022-08-05T03:37:45.683Z,74.10
2022-08-05T03:40:31.166Z,74.00
2022-08-05T03:43:58.376Z,74.01
2022-08-05T03:45:58.816Z,74.13
2022-08-05T03:48:35.142Z,74.26
2022-08-05T03:52:37.445Z,74.18
2022-08-05T03:55:50.630Z,74.20
2022-08-05T03:57:02.288Z,74.16
2022-08-05T03:59:54.916Z,74.21
2022-08-05T04:02:38.615Z,74.16
2022-08-05T04:05:18.903Z,74.25
2022-08-05T04:07:57.479Z,74.27
2022-08-05T04:10:37.359Z,74.28
2022-08-05T04:13:09.433Z,74.19
2022-08-05T04:16:02.802Z,74.19
2022-08-05T04:18:34.430Z,74.21
2022-08-05T04:21:07.586Z,74.39
2022-08-05T04:24:05.395Z,74.51
2022-08-05T04:26:33.340Z,74.42
2022-08-05T04:29:07.406Z,74.11
2022-08-05T04:31:39.511Z,73.70
2022-08-05T04:34:31.357Z,73.30
2022-08-05T04:37:03.183Z,72.60
2022-08-05T04:39:35.418Z,72.27
2022-08-05T04:42:08.003Z,71.94
2022-08-05T04:44:40.039Z,71.43
2022-08-05T04:47:13.647Z,71.28
2022-08-05T04:50:01.861Z,71.12
2022-08-05T04:52:37.906Z,71.07
2022-08-05T04:55:14.246Z,71.20
2022-08-05T04:57:51.560Z,71.15
2022-08-05T05:00:25.092Z,70.45
2022-08-05T05:02:58.202Z,69.87
2022-08-05T05:05:34.592Z,68.86
2022-08-05T05:08:26.737Z,67.97
2022-08-05T05:11:01.565Z,67.05
2022-08-05T05:13:43.034Z,66.21
2022-08-05T05:16:15.502Z,65.15
2022-08-05T05:19:16.356Z,65.14
2022-08-05T05:21:42.379Z,65.05
2022-08-05T05:24:18.027Z,64.93
2022-08-05T05:26:51.991Z,65.12
2022-08-05T05:29:23.398Z,65.58
2022-08-05T05:31:55.684Z,65.77
2022-08-05T05:34:27.399Z,66.72
2022-08-05T05:36:58.766Z,66.25
2022-08-05T05:39:34.589Z,66.66
2022-08-05T05:42:07.839Z,66.66
2022-08-05T05:44:43.082Z,66.97
2022-08-05T05:47:21.835Z,67.82
2022-08-05T05:49:56.796Z,67.72
2022-08-05T05:52:37.900Z,67.76
2022-08-05T05:55:13.275Z,67.99
2022-08-05T05:57:52.676Z,68.33
2022-08-05T06:00:27.801Z,68.61
2022-08-05T06:03:39.671Z,68.53
2022-08-05T06:05:56.103Z,68.40
2022-08-05T06:08:32.351Z,68.46
2022-08-05T06:11:04.198Z,68.20
2022-08-05T06:13:40.675Z,68.54
2022-08-05T06:16:28.432Z,68.26
2022-08-05T06:19:05.909Z,68.43
2022-08-05T06:21:42.931Z,67.93
2022-08-05T06:24:22.517Z,68.01
2022-08-05T06:26:58.435Z,67.92
2022-08-05T06:29:46.787Z,68.03
2022-08-05T06:32:25.825Z,68.54
2022-08-05T06:34:59.266Z,68.38
2022-08-05T06:37:56.446Z,68.32
2022-08-05T06:40:21.949Z,67.90
2022-08-05T06:42:58.964Z,68.14
2022-08-05T06:45:44.779Z,68.02
2022-08-05T06:48:47.432Z,67.58
2022-08-05T06:51:12.318Z,65.19
2022-08-05T06:54:00.003Z,63.82
2022-08-05T06:56:34.136Z,63.68
2022-08-05T06:59:09.547Z,63.91
2022-08-05T07:01:42.479Z,62.30
2022-08-05T07:04:14.255Z,59.99
2022-08-05T07:06:45.456Z,59.98
2022-08-05T07:09:21.088Z,58.97
2022-08-05T07:11:56.448Z,58.70
2022-08-05T07:15:03.728Z,58.99
2022-08-05T07:18:00.418Z,59.00
2022-08-05T07:20:36.313Z,58.03
2022-08-05T07:23:09.829Z,57.42
2022-08-05T07:25:57.820Z,55.53
2022-08-05T07:28:28.713Z,56.02
2022-08-05T07:30:59.580Z,54.39
2022-08-05T07:33:37.168Z,53.14
2022-08-05T07:36:20.152Z,52.83
2022-08-05T07:38:54.681Z,52.10
2022-08-05T07:42:13.251Z,51.12
2022-08-05T07:44:19.481Z,50.40
2022-08-05T07:46:51.294Z,50.01
2022-08-05T07:49:22.573Z,48.66
2022-08-05T07:51:55.100Z,48.98
2022-08-05T07:54:31.286Z,49.03
2022-08-05T07:57:14.715Z,47.10
2022-08-05T07:59:56.494Z,46.76
2022-08-05T08:03:13.627Z,45.46
2022-08-05T08:05:22.611Z,45.83
2022-08-05T08:07:59.731Z,45.00
2022-08-05T08:10:31.917Z,44.54
2022-08-05T08:13:04.539Z,44.09
2022-08-05T08:16:33.606Z,43.85
2022-08-05T08:18:26.763Z,43.64
2022-08-05T08:21:03.134Z,43.43
2022-08-05T08:24:02.636Z,42.95
2022-08-05T08:26:29.247Z,43.57
2022-08-05T08:29:21.535Z,44.58
2022-08-05T08:31:53.347Z,44.02
2022-08-05T08:34:30.211Z,43.55
2022-08-05T08:37:05.079Z,42.91
2022-08-05T08:39:37.430Z,42.33
2022-08-05T08:42:34.113Z,42.18
2022-08-05T08:45:22.114Z,42.22
2022-08-05T08:48:11.838Z,42.08
2022-08-05T08:51:03.069Z,42.26
2022-08-05T08:53:44.958Z,42.78
2022-08-05T08:56:17.329Z,40.99
2022-08-05T08:58:50.524Z,40.96
2022-08-05T09:01:22.381Z,41.32
2022-08-05T09:03:58.267Z,42.10
2022-08-05T09:06:32.391Z,41.00
2022-08-05T09:09:13.023Z,41.19
2022-08-05T09:11:53.397Z,38.67
2022-08-05T09:14:57.544Z,38.73
2022-08-05T09:17:40.411Z,39.16
2022-08-05T09:20:11.379Z,39.10
2022-08-05T09:23:19.122Z,38.99
2022-08-05T09:26:00.857Z,37.99
2022-08-05T09:28:37.481Z,38.35
2022-08-05T09:31:23.529Z,38.00
2022-08-05T09:34:06.292Z,36.59
2022-08-05T09:36:55.843Z,36.37
2022-08-05T09:39:41.407Z,37.07
2022-08-05T09:42:28.494Z,37.98
2022-08-05T09:45:17.404Z,38.37
2022-08-05T09:47:55.977Z,38.76
2022-08-05T09:50:44.521Z,39.22
2022-08-05T09:53:26.202Z,37.63
2022-08-05T09:56:12.612Z,36.00
2022-08-05T09:58:56.680Z,36.20
2022-08-05T10:01:31.778Z,35.73
2022-08-05T10:04:10.138Z,36.15
2022-08-05T10:06:54.625Z,36.19
2022-08-05T10:09:28.046Z,35.71
2022-08-05T10:12:30.374Z,34.64
2022-08-05T10:15:25.734Z,33.94
2022-08-05T10:18:13.910Z,35.81
2022-08-05T10:20:52.006Z,35.35
2022-08-05T10:23:55.176Z,34.45
2022-08-05T10:26:17.129Z,33.91
2022-08-05T10:28:49.196Z,33.46
2022-08-05T10:32:52.970Z,34.55
2022-08-05T10:34:12.575Z,34.71
2022-08-05T10:36:45.242Z,34.45
2022-08-05T10:39:24.804Z,34.47
2022-08-05T10:42:21.434Z,33.48
2022-08-05T10:45:09.625Z,33.60
2022-08-05T10:48:31.532Z,32.48
2022-08-05T10:53:54.834Z,32.51
2022-08-05T10:56:27.880Z,32.32
2022-08-05T11:00:01.162Z,32.24
2022-08-05T11:02:14.432Z,31.87
2022-08-05T11:05:10.179Z,32.53
2022-08-05T11:08:02.648Z,33.69
2022-08-05T11:10:37.865Z,32.89
2022-08-05T11:13:57.954Z,32.49
2022-08-05T11:16:47.491Z,32.22
2022-08-05T11:20:10.965Z,32.73
2022-08-05T11:22:42.384Z,32.45
2022-08-05T11:26:06.279Z,32.99
2022-08-05T11:28:48.160Z,32.83
2022-08-05T11:31:58.705Z,32.22
2022-08-05T11:34:38.799Z,33.41
2022-08-05T11:38:36.740Z,33.75
2022-08-05T11:40:03.411Z,32.53
2022-08-05T11:42:37.874Z,32.70
2022-08-05T11:45:14.605Z,31.60
2022-08-05T11:47:58.656Z,31.53
2022-08-05T11:50:30.242Z,31.92
2022-08-05T11:53:09.807Z,32.39
2022-08-05T11:55:53.453Z,32.40
2022-08-05T11:58:31.557Z,32.26
2022-08-05T12:01:08.335Z,32.03
2022-08-05T12:03:55.602Z,30.93
2022-08-05T12:06:29.514Z,30.20
2022-08-05T12:09:01.773Z,30.51
2022-08-05T12:11:40.220Z,29.83
2022-08-05T12:14:12.781Z,31.28
2022-08-05T12:16:47.983Z,30.49
2022-08-05T12:20:16.772Z,30.35
2022-08-05T12:22:13.578Z,29.68
2022-08-05T12:24:53.119Z,29.77
2022-08-05T12:27:26.114Z,30.12
2022-08-05T12:30:06.291Z,29.62
2022-08-05T12:32:50.718Z,29.63
2022-08-05T12:35:23.778Z,30.41
2022-08-05T12:38:08.251Z,29.95
2022-08-05T12:40:44.160Z,29.99
2022-08-05T12:43:20.772Z,29.98
2022-08-05T12:45:56.262Z,29.10
2022-08-05T12:48:32.592Z,29.75
2022-08-05T12:52:11.013Z,28.82
2022-08-05T12:54:14.795Z,28.77
2022-08-05T12:56:51.794Z,29.41
2022-08-05T12:59:27.527Z,29.94
2022-08-05T13:02:21.500Z,30.12
2022-08-05T13:04:58.832Z,29.43
2022-08-05T13:07:59.720Z,29.61
2022-08-05T13:10:21.046Z,28.48
2022-08-05T13:12:57.962Z,29.14
2022-08-05T13:15:41.795Z,29.46
2022-08-05T13:18:21.800Z,29.93
2022-08-05T13:20:55.069Z,30.30
2022-08-05T13:23:27.137Z,29.16
2022-08-05T13:26:01.097Z,29.42
2022-08-05T13:28:32.745Z,29.81
2022-08-05T13:31:14.120Z,31.10
2022-08-05T13:34:21.666Z,31.26
2022-08-05T13:36:36.575Z,29.20
2022-08-05T13:40:13.176Z,29.51
2022-08-05T13:41:59.707Z,29.49
2022-08-05T13:44:30.506Z,29.30
2022-08-05T13:47:08.648Z,30.02
2022-08-05T13:49:45.111Z,28.43
2022-08-05T13:52:20.216Z,29.32
2022-08-05T13:55:07.376Z,30.34
2022-08-05T13:57:50.702Z,29.14
2022-08-05T14:00:26.874Z,29.19
2022-08-05T14:03:01.025Z,29.87
2022-08-05T14:06:24.714Z,29.89
2022-08-05T14:08:36.210Z,29.53
2022-08-05T14:11:20.609Z,29.09
2022-08-05T14:13:55.066Z,29.79
2022-08-05T14:16:28.871Z,29.46
2022-08-05T14:19:04.623Z,28.94
2022-08-05T14:22:08.832Z,28.93
2022-08-05T14:24:26.400Z,29.08
2022-08-05T14:27:17.745Z,28.95
2022-08-05T14:29:51.420Z,28.17
2022-08-05T14:32:27.018Z,28.22
2022-08-05T14:34:58.971Z,26.91
2022-08-05T14:37:45.614Z,26.12
2022-08-05T14:40:20.268Z,25.72
2022-08-05T14:42:55.649Z,25.79
2022-08-05T14:45:26.853Z,25.22
2022-08-05T14:48:05.486Z,25.79
2022-08-05T14:50:40.852Z,25.40
2022-08-05T14:53:13.550Z,24.79
2022-08-05T14:55:47.328Z,25.07
2022-08-05T14:58:23.362Z,24.95
2022-08-05T15:00:58.932Z,25.03
2022-08-05T15:03:34.179Z,24.38
2022-08-05T15:06:14.942Z,25.07
2022-08-05T15:08:59.579Z,24.71
2022-08-05T15:11:53.178Z,23.72
2022-08-05T15:14:35.937Z,22.61
2022-08-05T15:17:45.095Z,22.77
2022-08-05T15:20:06.183Z,23.07
2022-08-05T15:22:41.365Z,23.70
2022-08-05T15:25:15.744Z,23.70
2022-08-05T15:27:54.808Z,23.16
2022-08-05T15:30:25.747Z,23.22
2022-08-05T15:32:57.463Z,23.95
2022-08-05T15:35:36.210Z,23.92
2022-08-05T15:38:32.637Z,23.93
2022-08-05T15:41:21.347Z,23.73
2022-08-05T15:43:49.339Z,23.16
2022-08-05T15:46:24.217Z,24.13
2022-08-05T15:48:58.893Z,24.37
2022-08-05T15:52:04.045Z,24.43
2022-08-05T15:54:34.903Z,24.25
2022-08-05T15:57:18.261Z,24.09
2022-08-05T15:59:51.894Z,24.25
2022-08-05T16:02:28.859Z,23.01
2022-08-05T16:05:00.853Z,23.40
2022-08-05T16:07:32.142Z,23.34
2022-08-05T16:10:03.089Z,23.52
2022-08-05T16:12:34.058Z,23.94
2022-08-05T16:15:05.595Z,24.18
2022-08-05T16:17:36.490Z,24.06
2022-08-05T16:20:12.177Z,24.21
2022-08-05T16:22:43.358Z,23.89
2022-08-05T16:25:14.439Z,24.67
2022-08-05T16:28:00.534Z,24.90
2022-08-05T16:30:36.965Z,24.53
2022-08-05T16:33:07.943Z,24.48
2022-08-05T16:35:42.250Z,25.07
2022-08-05T16:38:23.787Z,25.29
2022-08-05T16:41:00.202Z,25.59
2022-08-05T16:43:33.634Z,25.92
2022-08-05T16:46:23.971Z,25.90
2022-08-05T16:48:56.165Z,26.21
2022-08-05T16:51:30.797Z,25.73
2022-08-05T16:54:17.378Z,26.49
2022-08-05T16:56:51.983Z,26.31
2022-08-05T16:59:23.523Z,27.02
2022-08-05T17:01:55.941Z,27.82
2022-08-05T17:04:28.556Z,27.94
2022-08-05T17:07:01.865Z,28.82
2022-08-05T17:09:57.875Z,28.61
2022-08-05T17:12:51.299Z,29.03
2022-08-05T17:15:19.658Z,29.44
2022-08-05T17:17:55.032Z,30.23
2022-08-05T17:20:26.715Z,30.94
2022-08-05T17:22:58.713Z,32.05
2022-08-05T17:25:39.387Z,33.44
2022-08-05T17:28:11.196Z,32.89
2022-08-05T17:30:52.088Z,33.36
2022-08-05T17:33:23.518Z,33.91
2022-08-05T17:36:07.793Z,34.63
2022-08-05T17:38:41.377Z,37.07
2022-08-05T17:42:16.737Z,36.73
2022-08-05T17:44:03.497Z,37.14
2022-08-05T17:46:34.518Z,37.19
2022-08-05T17:49:05.477Z,37.76
2022-08-05T17:51:40.326Z,37.91
2022-08-05T17:54:12.215Z,38.41
2022-08-05T17:56:45.522Z,38.85
2022-08-05T17:59:22.742Z,40.26
2022-08-05T18:01:54.258Z,41.29
2022-08-05T18:04:27.244Z,41.01
2022-08-05T18:07:01.429Z,41.55
2022-08-05T18:09:59.415Z,42.10
2022-08-05T18:12:24.500Z,43.39
2022-08-05T18:14:55.940Z,43.86
2022-08-05T18:17:58.635Z,44.73
2022-08-05T18:20:17.657Z,44.08
2022-08-05T18:22:54.573Z,45.18
2022-08-05T18:25:32.792Z,46.80
2022-08-05T18:28:04.732Z,47.64
2022-08-05T18:30:38.913Z,47.81
2022-08-05T18:33:13.754Z,47.48
2022-08-05T18:36:01.421Z,47.64
2022-08-05T18:38:38.510Z,48.46
2022-08-05T18:41:55.278Z,49.55
2022-08-05T18:44:05.466Z,49.64
2022-08-05T18:46:37.323Z,49.41
2022-08-05T18:49:30.497Z,48.64
2022-08-05T18:52:33.098Z,48.97
2022-08-05T18:55:10.619Z,48.36
2022-08-05T18:57:49.995Z,47.91
2022-08-05T19:00:28.633Z,47.94
2022-08-05T19:03:03.895Z,48.42
2022-08-05T19:06:11.984Z,48.25
2022-08-05T19:08:30.536Z,48.31
2022-08-05T19:11:04.922Z,49.17
2022-08-05T19:13:38.658Z,49.21
2022-08-05T19:16:24.360Z,48.99
2022-08-05T19:18:57.124Z,48.68
2022-08-05T19:21:34.195Z,48.93
2022-08-05T19:24:12.671Z,49.23
2022-08-05T19:26:55.161Z,47.82
2022-08-05T19:29:36.511Z,48.32
2022-08-05T19:32:11.405Z,47.06
2022-08-05T19:34:54.722Z,47.19
2022-08-05T19:37:47.015Z,46.70
2022-08-05T19:40:18.101Z,46.46
2022-08-05T19:43:04.749Z,46.41
2022-08-05T19:45:37.241Z,46.69
2022-08-05T19:48:14.544Z,47.47
2022-08-05T19:50:46.266Z,48.54
2022-08-05T19:53:17.567Z,46.89
2022-08-05T19:56:14.765Z,48.59
2022-08-05T19:59:51.172Z,49.62
2022-08-05T20:01:51.355Z,50.15
2022-08-05T20:04:22.494Z,49.27
2022-08-05T20:06:55.081Z,49.68
2022-08-05T20:09:26.456Z,50.59
2022-08-05T20:11:59.370Z,50.93
2022-08-05T20:14:34.615Z,51.42
2022-08-05T20:17:06.654Z,51.97
2022-08-05T20:19:41.333Z,52.71
2022-08-05T20:22:13.447Z,53.20
2022-08-05T20:24:44.449Z,53.78
2022-08-05T20:27:15.887Z,54.38
2022-08-05T20:29:57.456Z,55.37
2022-08-05T20:32:29.815Z,55.93
2022-08-05T20:35:00.946Z,55.79
2022-08-05T20:38:06.639Z,56.47
2022-08-05T20:40:24.863Z,56.33
2022-08-05T20:43:00.046Z,56.78
2022-08-05T20:45:47.631Z,57.14
2022-08-05T20:48:22.460Z,57.89
2022-08-05T20:50:56.132Z,57.89
2022-08-05T20:53:36.874Z,58.21
2022-08-05T20:56:12.182Z,58.46
2022-08-05T20:58:43.577Z,57.72
2022-08-05T21:01:14.962Z,55.88
2022-08-05T21:03:48.351Z,54.85
2022-08-05T21:06:28.519Z,54.68
2022-08-05T21:08:59.556Z,54.08
2022-08-05T21:12:07.034Z,54.30
2022-08-05T21:14:22.548Z,55.16
2022-08-05T21:16:58.200Z,55.09
2022-08-05T21:19:29.198Z,55.31
2022-08-05T21:22:21.595Z,55.55
2022-08-05T21:24:55.477Z,55.68
2022-08-05T21:27:28.452Z,56.24
2022-08-05T21:30:11.882Z,56.72
2022-08-05T21:32:49.438Z,56.86
2022-08-05T21:35:30.016Z,57.02
2022-08-05T21:38:13.518Z,57.03
2022-08-05T21:40:45.337Z,57.13
2022-08-05T21:43:24.099Z,56.45
2022-08-05T21:46:00.207Z,55.84
2022-08-05T21:48:31.735Z,56.35
2022-08-05T21:51:03.128Z,56.88
2022-08-05T21:53:59.434Z,57.17
2022-08-05T21:56:35.007Z,57.62
2022-08-05T21:59:07.948Z,57.20
2022-08-05T22:01:39.375Z,57.59
2022-08-05T22:04:14.246Z,57.49
2022-08-05T22:06:50.518Z,57.64
2022-08-05T22:09:21.495Z,57.61
2022-08-05T22:11:52.790Z,57.89
2022-08-05T22:14:35.743Z,58.07
2022-08-05T22:17:09.424Z,58.16
2022-08-05T22:20:02.075Z,58.24
2022-08-05T22:22:32.049Z,58.04
2022-08-05T22:25:27.316Z,58.13
2022-08-05T22:28:10.577Z,58.21
2022-08-05T22:30:56.539Z,58.23
2022-08-05T22:33:58.112Z,58.44
2022-08-05T22:36:24.062Z,58.54
2022-08-05T22:38:55.537Z,58.88
2022-08-05T22:42:10.314Z,58.93
2022-08-05T22:44:19.153Z,58.98
2022-08-05T22:46:50.190Z,59.20
2022-08-05T22:49:46.261Z,59.45
2022-08-05T22:52:22.916Z,59.51
2022-08-05T22:55:04.352Z,59.49
2022-08-05T22:57:51.519Z,59.54
2022-08-05T23:00:24.481Z,59.81
2022-08-05T23:02:58.180Z,59.70
2022-08-05T23:05:30.047Z,60.12
2022-08-05T23:08:07.360Z,60.08
2022-08-05T23:10:43.419Z,60.10
2022-08-05T23:13:14.201Z,60.19
2022-08-05T23:15:45.845Z,60.25
2022-08-05T23:18:22.946Z,60.32
2022-08-05T23:20:53.847Z,60.44
2022-08-05T23:23:24.907Z,60.52
2022-08-05T23:26:00.879Z,60.80
2022-08-05T23:28:35.405Z,61.09
2022-08-05T23:31:17.311Z,61.23
2022-08-05T23:34:03.781Z,61.35
2022-08-05T23:36:39.866Z,61.51
2022-08-05T23:39:23.768Z,61.52
2022-08-05T23:42:04.696Z,61.67
2022-08-05T23:44:39.589Z,61.86
2022-08-05T23:47:15.598Z,62.27
2022-08-05T23:49:47.657Z,63.11
2022-08-05T23:52:30.475Z,63.57
2022-08-05T23:55:05.236Z,63.86
2022-08-05T23:57:36.846Z,64.03
